sensor_id;sensor_type;location;lat;lon;timestamp;P1;durP1;ratioP1;P2;durP2;ratioP2
33862;SDS011;20158;51.436;-2.742;2022-12-11T00:00:07;6.35;;;5.75;;
33862;SDS011;20158;51.436;-2.742;2022-12-11T00:02:52;9.40;;;5.90;;
33862;SDS011;20158;51.436;-2.742;2022-12-11T00:05:38;7.85;;;6.65;;
33862;SDS011;20158;51.436;-2.742;2022-12-11T00:08:23;6.43;;;5.20;;
33862;SDS011;20158;51.436;-2.742;2022-12-11T00:11:08;7.13;;;6.00;;
33862;SDS011;20158;51.436;-2.742;2022-12-11T00:13:54;8.00;;;5.30;;
33862;SDS011;20158;51.436;-2.742;2022-12-11T00:16:39;8.32;;;5.70;;
33862;SDS011;20158;51.436;-2.742;2022-12-11T00:19:24;6.68;;;5.50;;
33862;SDS011;20158;51.436;-2.742;2022-12-11T00:22:08;8.25;;;6.30;;
33862;SDS011;20158;51.436;-2.742;2022-12-11T00:24:53;6.80;;;5.40;;
33862;SDS011;20158;51.436;-2.742;2022-12-11T00:27:38;7.75;;;5.38;;
33862;SDS011;20158;51.436;-2.742;2022-12-11T00:30:22;6.63;;;5.22;;
33862;SDS011;20158;51.436;-2.742;2022-12-11T00:33:08;6.72;;;5.47;;
33862;SDS011;20158;51.436;-2.742;2022-12-11T00:35:53;6.60;;;5.50;;
33862;SDS011;20158;51.436;-2.742;2022-12-11T00:38:38;6.57;;;5.38;;
33862;SDS011;20158;51.436;-2.742;2022-12-11T00:41:22;6.70;;;5.45;;
33862;SDS011;20158;51.436;-2.742;2022-12-11T00:44:07;7.85;;;5.68;;
33862;SDS011;20158;51.436;-2.742;2022-12-11T00:46:51;6.68;;;5.43;;
33862;SDS011;20158;51.436;-2.742;2022-12-11T00:49:36;6.20;;;5.05;;
33862;SDS011;20158;51.436;-2.742;2022-12-11T00:52:21;6.40;;;5.07;;
33862;SDS011;20158;51.436;-2.742;2022-12-11T00:55:06;8.00;;;5.18;;
33862;SDS011;20158;51.436;-2.742;2022-12-11T00:57:50;6.07;;;5.43;;
33862;SDS011;20158;51.436;-2.742;2022-12-11T01:00:35;6.55;;;5.15;;
33862;SDS011;20158;51.436;-2.742;2022-12-11T01:03:20;6.72;;;5.50;;
33862;SDS011;20158;51.436;-2.742;2022-12-11T01:06:05;7.40;;;5.47;;
33862;SDS011;20158;51.436;-2.742;2022-12-11T01:08:50;9.05;;;6.32;;
33862;SDS011;20158;51.436;-2.742;2022-12-11T01:11:55;5.28;;;4.78;;
33862;SDS011;20158;51.436;-2.742;2022-12-11T01:14:39;7.00;;;5.70;;
33862;SDS011;20158;51.436;-2.742;2022-12-11T01:17:24;7.75;;;5.75;;
33862;SDS011;20158;51.436;-2.742;2022-12-11T01:20:08;7.28;;;5.30;;
33862;SDS011;20158;51.436;-2.742;2022-12-11T01:22:54;6.00;;;5.22;;
33862;SDS011;20158;51.436;-2.742;2022-12-11T01:25:39;7.40;;;5.43;;
33862;SDS011;20158;51.436;-2.742;2022-12-11T01:28:25;8.85;;;5.38;;
33862;SDS011;20158;51.436;-2.742;2022-12-11T01:31:13;8.15;;;5.68;;
33862;SDS011;20158;51.436;-2.742;2022-12-11T01:33:59;9.88;;;6.68;;
33862;SDS011;20158;51.436;-2.742;2022-12-11T01:36:44;8.20;;;6.57;;
33862;SDS011;20158;51.436;-2.742;2022-12-11T01:39:28;9.20;;;6.75;;
33862;SDS011;20158;51.436;-2.742;2022-12-11T01:42:17;9.32;;;7.55;;
33862;SDS011;20158;51.436;-2.742;2022-12-11T01:48:10;11.30;;;8.40;;
33862;SDS011;20158;51.436;-2.742;2022-12-11T01:50:59;12.30;;;9.00;;
33862;SDS011;20158;51.436;-2.742;2022-12-11T01:53:47;10.82;;;9.13;;
33862;SDS011;20158;51.436;-2.742;2022-12-11T01:56:36;14.32;;;10.52;;
33862;SDS011;20158;51.436;-2.742;2022-12-11T01:59:23;14.43;;;10.23;;
33862;SDS011;20158;51.436;-2.742;2022-12-11T02:02:19;15.65;;;10.88;;
33862;SDS011;20158;51.436;-2.742;2022-12-11T02:05:10;14.05;;;10.63;;
33862;SDS011;20158;51.436;-2.742;2022-12-11T02:07:56;13.20;;;10.27;;
33862;SDS011;20158;51.436;-2.742;2022-12-11T02:30:14;14.82;;;11.50;;
33862;SDS011;20158;51.436;-2.742;2022-12-11T02:32:59;15.25;;;11.20;;
33862;SDS011;20158;51.436;-2.742;2022-12-11T02:35:44;15.32;;;11.63;;
33862;SDS011;20158;51.436;-2.742;2022-12-11T02:38:31;14.85;;;12.05;;
33862;SDS011;20158;51.436;-2.742;2022-12-11T02:41:19;15.30;;;11.50;;
33862;SDS011;20158;51.436;-2.742;2022-12-11T02:44:05;15.50;;;12.23;;
33862;SDS011;20158;51.436;-2.742;2022-12-11T02:46:51;13.77;;;11.60;;
33862;SDS011;20158;51.436;-2.742;2022-12-11T02:49:36;14.15;;;12.07;;
33862;SDS011;20158;51.436;-2.742;2022-12-11T02:52:23;13.85;;;11.93;;
33862;SDS011;20158;51.436;-2.742;2022-12-11T02:55:09;13.25;;;11.82;;
33862;SDS011;20158;51.436;-2.742;2022-12-11T02:58:07;18.48;;;13.10;;
33862;SDS011;20158;51.436;-2.742;2022-12-11T03:01:06;12.77;;;11.45;;
33862;SDS011;20158;51.436;-2.742;2022-12-11T03:03:51;16.35;;;11.93;;
33862;SDS011;20158;51.436;-2.742;2022-12-11T03:06:42;15.00;;;12.95;;
33862;SDS011;20158;51.436;-2.742;2022-12-11T03:09:30;15.43;;;12.38;;
33862;SDS011;20158;51.436;-2.742;2022-12-11T03:12:19;14.13;;;12.00;;
33862;SDS011;20158;51.436;-2.742;2022-12-11T03:15:13;16.27;;;13.07;;
33862;SDS011;20158;51.436;-2.742;2022-12-11T03:18:16;14.43;;;12.48;;
33862;SDS011;20158;51.436;-2.742;2022-12-11T03:24:07;15.65;;;12.43;;
33862;SDS011;20158;51.436;-2.742;2022-12-11T03:30:26;14.45;;;12.15;;
33862;SDS011;20158;51.436;-2.742;2022-12-11T03:32:57;13.57;;;11.63;;
33862;SDS011;20158;51.436;-2.742;2022-12-11T03:35:47;14.60;;;11.20;;
33862;SDS011;20158;51.436;-2.742;2022-12-11T03:38:43;17.05;;;11.93;;
33862;SDS011;20158;51.436;-2.742;2022-12-11T03:41:32;13.95;;;11.25;;
33862;SDS011;20158;51.436;-2.742;2022-12-11T03:44:20;15.57;;;11.90;;
33862;SDS011;20158;51.436;-2.742;2022-12-11T03:47:06;14.60;;;12.60;;
33862;SDS011;20158;51.436;-2.742;2022-12-11T03:49:51;14.35;;;11.60;;
33862;SDS011;20158;51.436;-2.742;2022-12-11T03:52:40;15.45;;;12.68;;
33862;SDS011;20158;51.436;-2.742;2022-12-11T03:55:25;12.90;;;11.57;;
33862;SDS011;20158;51.436;-2.742;2022-12-11T03:58:12;13.07;;;10.90;;
33862;SDS011;20158;51.436;-2.742;2022-12-11T04:00:56;15.68;;;11.98;;
33862;SDS011;20158;51.436;-2.742;2022-12-11T04:03:41;14.05;;;11.75;;
33862;SDS011;20158;51.436;-2.742;2022-12-11T04:06:26;12.40;;;10.77;;
33862;SDS011;20158;51.436;-2.742;2022-12-11T04:09:10;15.50;;;12.50;;
33862;SDS011;20158;51.436;-2.742;2022-12-11T04:11:55;14.93;;;11.70;;
33862;SDS011;20158;51.436;-2.742;2022-12-11T04:14:40;15.30;;;12.38;;
33862;SDS011;20158;51.436;-2.742;2022-12-11T04:17:59;13.73;;;11.15;;
33862;SDS011;20158;51.436;-2.742;2022-12-11T04:21:03;13.90;;;11.95;;
33862;SDS011;20158;51.436;-2.742;2022-12-11T04:24:06;14.55;;;12.52;;
33862;SDS011;20158;51.436;-2.742;2022-12-11T04:27:00;13.15;;;11.18;;
33862;SDS011;20158;51.436;-2.742;2022-12-11T04:29:45;13.07;;;11.57;;
33862;SDS011;20158;51.436;-2.742;2022-12-11T04:32:29;14.25;;;11.27;;
33862;SDS011;20158;51.436;-2.742;2022-12-11T04:35:14;14.88;;;11.32;;
33862;SDS011;20158;51.436;-2.742;2022-12-11T04:37:59;14.65;;;11.35;;
33862;SDS011;20158;51.436;-2.742;2022-12-11T04:40:44;14.02;;;12.15;;
33862;SDS011;20158;51.436;-2.742;2022-12-11T04:43:29;13.88;;;11.85;;
33862;SDS011;20158;51.436;-2.742;2022-12-11T04:46:18;13.38;;;10.93;;
33862;SDS011;20158;51.436;-2.742;2022-12-11T04:49:04;12.77;;;11.43;;
33862;SDS011;20158;51.436;-2.742;2022-12-11T04:51:48;14.13;;;12.15;;
33862;SDS011;20158;51.436;-2.742;2022-12-11T04:54:33;13.23;;;11.45;;
33862;SDS011;20158;51.436;-2.742;2022-12-11T04:57:17;15.73;;;11.02;;
33862;SDS011;20158;51.436;-2.742;2022-12-11T05:00:04;13.35;;;11.27;;
33862;SDS011;20158;51.436;-2.742;2022-12-11T05:02:50;11.93;;;10.68;;
33862;SDS011;20158;51.436;-2.742;2022-12-11T05:05:35;14.32;;;11.70;;
33862;SDS011;20158;51.436;-2.742;2022-12-11T05:08:20;13.43;;;11.63;;
33862;SDS011;20158;51.436;-2.742;2022-12-11T05:11:06;12.05;;;10.77;;
33862;SDS011;20158;51.436;-2.742;2022-12-11T05:13:52;14.05;;;11.27;;
33862;SDS011;20158;51.436;-2.742;2022-12-11T05:16:37;13.30;;;11.75;;
33862;SDS011;20158;51.436;-2.742;2022-12-11T05:19:21;13.18;;;11.20;;
33862;SDS011;20158;51.436;-2.742;2022-12-11T05:22:06;12.63;;;10.95;;
33862;SDS011;20158;51.436;-2.742;2022-12-11T05:24:51;14.30;;;11.48;;
33862;SDS011;20158;51.436;-2.742;2022-12-11T05:27:35;13.45;;;11.32;;
33862;SDS011;20158;51.436;-2.742;2022-12-11T05:30:20;12.40;;;11.10;;
33862;SDS011;20158;51.436;-2.742;2022-12-11T05:33:04;11.23;;;10.13;;
33862;SDS011;20158;51.436;-2.742;2022-12-11T05:35:49;12.55;;;10.90;;
33862;SDS011;20158;51.436;-2.742;2022-12-11T05:38:34;11.65;;;10.32;;
33862;SDS011;20158;51.436;-2.742;2022-12-11T05:41:20;12.68;;;10.45;;
33862;SDS011;20158;51.436;-2.742;2022-12-11T05:44:06;13.30;;;10.40;;
33862;SDS011;20158;51.436;-2.742;2022-12-11T05:46:50;13.00;;;11.00;;
33862;SDS011;20158;51.436;-2.742;2022-12-11T05:49:35;12.05;;;9.98;;
33862;SDS011;20158;51.436;-2.742;2022-12-11T05:52:20;12.07;;;10.52;;
33862;SDS011;20158;51.436;-2.742;2022-12-11T05:55:05;12.68;;;11.10;;
33862;SDS011;20158;51.436;-2.742;2022-12-11T05:57:49;13.30;;;11.15;;
33862;SDS011;20158;51.436;-2.742;2022-12-11T06:00:34;12.13;;;10.63;;
33862;SDS011;20158;51.436;-2.742;2022-12-11T06:03:19;11.48;;;10.27;;
33862;SDS011;20158;51.436;-2.742;2022-12-11T06:06:04;11.77;;;10.50;;
33862;SDS011;20158;51.436;-2.742;2022-12-11T06:08:50;10.98;;;9.88;;
33862;SDS011;20158;51.436;-2.742;2022-12-11T06:11:36;12.75;;;11.43;;
33862;SDS011;20158;51.436;-2.742;2022-12-11T06:14:20;14.23;;;11.20;;
33862;SDS011;20158;51.436;-2.742;2022-12-11T06:17:05;11.90;;;10.65;;
33862;SDS011;20158;51.436;-2.742;2022-12-11T06:19:50;13.07;;;11.45;;
33862;SDS011;20158;51.436;-2.742;2022-12-11T06:22:35;12.95;;;11.55;;
33862;SDS011;20158;51.436;-2.742;2022-12-11T06:25:19;14.18;;;11.63;;
33862;SDS011;20158;51.436;-2.742;2022-12-11T06:28:04;15.75;;;12.00;;
33862;SDS011;20158;51.436;-2.742;2022-12-11T06:30:49;11.55;;;10.30;;
33862;SDS011;20158;51.436;-2.742;2022-12-11T06:33:34;13.23;;;11.55;;
33862;SDS011;20158;51.436;-2.742;2022-12-11T06:36:19;14.10;;;11.32;;
33862;SDS011;20158;51.436;-2.742;2022-12-11T06:39:05;13.80;;;11.30;;
33862;SDS011;20158;51.436;-2.742;2022-12-11T06:41:50;14.32;;;12.18;;
33862;SDS011;20158;51.436;-2.742;2022-12-11T06:44:34;12.15;;;10.85;;
33862;SDS011;20158;51.436;-2.742;2022-12-11T06:47:18;13.85;;;12.20;;
33862;SDS011;20158;51.436;-2.742;2022-12-11T06:50:03;14.50;;;12.18;;
33862;SDS011;20158;51.436;-2.742;2022-12-11T06:52:48;13.82;;;10.88;;
33862;SDS011;20158;51.436;-2.742;2022-12-11T06:55:35;13.45;;;11.52;;
33862;SDS011;20158;51.436;-2.742;2022-12-11T06:58:20;12.57;;;11.05;;
33862;SDS011;20158;51.436;-2.742;2022-12-11T07:01:12;14.88;;;11.77;;
33862;SDS011;20158;51.436;-2.742;2022-12-11T07:04:04;13.10;;;11.80;;
33862;SDS011;20158;51.436;-2.742;2022-12-11T07:06:49;15.13;;;12.10;;
33862;SDS011;20158;51.436;-2.742;2022-12-11T07:09:33;15.02;;;12.30;;
33862;SDS011;20158;51.436;-2.742;2022-12-11T07:12:18;15.63;;;13.00;;
33862;SDS011;20158;51.436;-2.742;2022-12-11T07:15:03;13.05;;;11.25;;
33862;SDS011;20158;51.436;-2.742;2022-12-11T07:17:48;13.30;;;11.45;;
33862;SDS011;20158;51.436;-2.742;2022-12-11T07:20:33;15.23;;;12.85;;
33862;SDS011;20158;51.436;-2.742;2022-12-11T07:23:17;15.45;;;12.27;;
33862;SDS011;20158;51.436;-2.742;2022-12-11T07:26:06;14.80;;;12.07;;
33862;SDS011;20158;51.436;-2.742;2022-12-11T07:28:55;16.58;;;12.52;;
33862;SDS011;20158;51.436;-2.742;2022-12-11T07:31:40;13.88;;;12.02;;
33862;SDS011;20158;51.436;-2.742;2022-12-11T07:34:25;13.65;;;12.25;;
33862;SDS011;20158;51.436;-2.742;2022-12-11T07:37:09;14.18;;;12.38;;
33862;SDS011;20158;51.436;-2.742;2022-12-11T07:39:54;13.88;;;12.35;;
33862;SDS011;20158;51.436;-2.742;2022-12-11T07:42:38;14.88;;;12.50;;
33862;SDS011;20158;51.436;-2.742;2022-12-11T07:45:23;16.05;;;12.52;;
33862;SDS011;20158;51.436;-2.742;2022-12-11T07:48:09;17.88;;;13.18;;
33862;SDS011;20158;51.436;-2.742;2022-12-11T07:50:53;14.77;;;13.20;;
33862;SDS011;20158;51.436;-2.742;2022-12-11T07:53:38;15.13;;;13.40;;
33862;SDS011;20158;51.436;-2.742;2022-12-11T07:56:23;17.73;;;13.35;;
33862;SDS011;20158;51.436;-2.742;2022-12-11T07:59:08;15.07;;;13.10;;
33862;SDS011;20158;51.436;-2.742;2022-12-11T08:01:53;14.18;;;12.18;;
33862;SDS011;20158;51.436;-2.742;2022-12-11T08:04:38;16.73;;;13.30;;
33862;SDS011;20158;51.436;-2.742;2022-12-11T08:07:22;17.52;;;14.05;;
33862;SDS011;20158;51.436;-2.742;2022-12-11T08:10:07;15.50;;;13.07;;
33862;SDS011;20158;51.436;-2.742;2022-12-11T08:12:52;16.85;;;13.52;;
33862;SDS011;20158;51.436;-2.742;2022-12-11T08:15:36;17.27;;;14.57;;
33862;SDS011;20158;51.436;-2.742;2022-12-11T08:18:21;14.98;;;12.93;;
33862;SDS011;20158;51.436;-2.742;2022-12-11T08:21:06;18.20;;;13.70;;
33862;SDS011;20158;51.436;-2.742;2022-12-11T08:23:51;15.63;;;13.55;;
33862;SDS011;20158;51.436;-2.742;2022-12-11T08:26:36;16.80;;;13.40;;
33862;SDS011;20158;51.436;-2.742;2022-12-11T08:29:21;17.17;;;13.43;;
33862;SDS011;20158;51.436;-2.742;2022-12-11T08:32:05;15.07;;;13.50;;
33862;SDS011;20158;51.436;-2.742;2022-12-11T08:34:50;15.32;;;12.88;;
33862;SDS011;20158;51.436;-2.742;2022-12-11T08:37:35;18.08;;;14.50;;
33862;SDS011;20158;51.436;-2.742;2022-12-11T08:40:19;16.60;;;13.98;;
33862;SDS011;20158;51.436;-2.742;2022-12-11T08:43:04;15.30;;;13.65;;
33862;SDS011;20158;51.436;-2.742;2022-12-11T08:45:50;14.98;;;12.40;;
33862;SDS011;20158;51.436;-2.742;2022-12-11T08:48:35;15.38;;;13.60;;
33862;SDS011;20158;51.436;-2.742;2022-12-11T08:51:24;16.77;;;14.18;;
33862;SDS011;20158;51.436;-2.742;2022-12-11T08:54:10;15.35;;;13.13;;
33862;SDS011;20158;51.436;-2.742;2022-12-11T08:56:55;17.58;;;14.93;;
33862;SDS011;20158;51.436;-2.742;2022-12-11T08:59:40;14.23;;;12.73;;
33862;SDS011;20158;51.436;-2.742;2022-12-11T09:02:24;15.88;;;12.60;;
33862;SDS011;20158;51.436;-2.742;2022-12-11T09:05:09;15.18;;;12.85;;
33862;SDS011;20158;51.436;-2.742;2022-12-11T09:07:54;17.45;;;13.48;;
33862;SDS011;20158;51.436;-2.742;2022-12-11T09:10:38;16.73;;;13.85;;
33862;SDS011;20158;51.436;-2.742;2022-12-11T09:13:23;16.25;;;13.40;;
33862;SDS011;20158;51.436;-2.742;2022-12-11T09:16:09;16.13;;;13.85;;
33862;SDS011;20158;51.436;-2.742;2022-12-11T09:18:56;15.73;;;13.05;;
33862;SDS011;20158;51.436;-2.742;2022-12-11T09:21:42;14.68;;;13.07;;
33862;SDS011;20158;51.436;-2.742;2022-12-11T09:24:26;16.52;;;14.13;;
33862;SDS011;20158;51.436;-2.742;2022-12-11T09:27:11;16.00;;;13.25;;
33862;SDS011;20158;51.436;-2.742;2022-12-11T09:29:55;15.52;;;12.52;;
33862;SDS011;20158;51.436;-2.742;2022-12-11T09:32:40;13.68;;;12.18;;
33862;SDS011;20158;51.436;-2.742;2022-12-11T09:35:25;15.23;;;12.90;;
33862;SDS011;20158;51.436;-2.742;2022-12-11T09:38:09;15.27;;;12.80;;
33862;SDS011;20158;51.436;-2.742;2022-12-11T09:40:54;15.55;;;13.15;;
33862;SDS011;20158;51.436;-2.742;2022-12-11T09:43:53;16.08;;;13.65;;
33862;SDS011;20158;51.436;-2.742;2022-12-11T09:46:45;16.75;;;14.35;;
33862;SDS011;20158;51.436;-2.742;2022-12-11T09:49:37;16.40;;;13.25;;
33862;SDS011;20158;51.436;-2.742;2022-12-11T09:52:27;19.13;;;14.27;;
33862;SDS011;20158;51.436;-2.742;2022-12-11T09:55:20;18.00;;;14.32;;
33862;SDS011;20158;51.436;-2.742;2022-12-11T10:01:43;17.92;;;13.18;;
33862;SDS011;20158;51.436;-2.742;2022-12-11T10:07:57;16.15;;;13.48;;
33862;SDS011;20158;51.436;-2.742;2022-12-11T10:10:46;16.83;;;13.45;;
33862;SDS011;20158;51.436;-2.742;2022-12-11T10:16:44;14.57;;;12.73;;
33862;SDS011;20158;51.436;-2.742;2022-12-11T10:19:33;16.95;;;12.82;;
33862;SDS011;20158;51.436;-2.742;2022-12-11T10:22:26;18.23;;;14.52;;
33862;SDS011;20158;51.436;-2.742;2022-12-11T10:25:18;15.93;;;14.23;;
33862;SDS011;20158;51.436;-2.742;2022-12-11T10:28:14;18.08;;;14.57;;
33862;SDS011;20158;51.436;-2.742;2022-12-11T10:36:47;16.63;;;13.20;;
33862;SDS011;20158;51.436;-2.742;2022-12-11T10:39:32;18.13;;;14.65;;
33862;SDS011;20158;51.436;-2.742;2022-12-11T10:42:19;17.02;;;13.70;;
33862;SDS011;20158;51.436;-2.742;2022-12-11T10:45:04;16.73;;;13.82;;
33862;SDS011;20158;51.436;-2.742;2022-12-11T10:47:49;19.20;;;13.80;;
33862;SDS011;20158;51.436;-2.742;2022-12-11T10:50:54;19.10;;;14.48;;
33862;SDS011;20158;51.436;-2.742;2022-12-11T10:53:48;19.52;;;14.18;;
33862;SDS011;20158;51.436;-2.742;2022-12-11T10:56:34;22.85;;;17.23;;
33862;SDS011;20158;51.436;-2.742;2022-12-11T11:05:16;24.00;;;16.02;;
33862;SDS011;20158;51.436;-2.742;2022-12-11T11:08:16;23.27;;;15.82;;
33862;SDS011;20158;51.436;-2.742;2022-12-11T11:11:02;21.13;;;17.10;;
33862;SDS011;20158;51.436;-2.742;2022-12-11T11:13:52;22.80;;;16.13;;
33862;SDS011;20158;51.436;-2.742;2022-12-11T11:16:54;21.60;;;15.30;;
33862;SDS011;20158;51.436;-2.742;2022-12-11T11:19:40;20.45;;;15.70;;
33862;SDS011;20158;51.436;-2.742;2022-12-11T11:22:29;21.73;;;16.35;;
33862;SDS011;20158;51.436;-2.742;2022-12-11T11:25:19;23.10;;;16.15;;
33862;SDS011;20158;51.436;-2.742;2022-12-11T11:28:06;20.88;;;16.15;;
33862;SDS011;20158;51.436;-2.742;2022-12-11T11:31:03;23.77;;;15.85;;
33862;SDS011;20158;51.436;-2.742;2022-12-11T11:33:55;21.38;;;16.73;;
33862;SDS011;20158;51.436;-2.742;2022-12-11T11:36:40;22.63;;;15.85;;
33862;SDS011;20158;51.436;-2.742;2022-12-11T11:42:19;17.45;;;14.10;;
33862;SDS011;20158;51.436;-2.742;2022-12-11T11:48:23;19.40;;;15.00;;
33862;SDS011;20158;51.436;-2.742;2022-12-11T11:57:38;17.73;;;13.18;;
33862;SDS011;20158;51.436;-2.742;2022-12-11T12:00:30;17.17;;;13.60;;
33862;SDS011;20158;51.436;-2.742;2022-12-11T12:03:15;19.80;;;14.65;;
33862;SDS011;20158;51.436;-2.742;2022-12-11T12:06:03;19.13;;;13.98;;
33862;SDS011;20158;51.436;-2.742;2022-12-11T12:09:02;19.42;;;15.38;;
33862;SDS011;20158;51.436;-2.742;2022-12-11T12:14:54;20.58;;;15.63;;
33862;SDS011;20158;51.436;-2.742;2022-12-11T12:17:54;19.77;;;15.63;;
33862;SDS011;20158;51.436;-2.742;2022-12-11T12:26:33;19.17;;;14.80;;
33862;SDS011;20158;51.436;-2.742;2022-12-11T12:29:36;21.17;;;16.48;;
33862;SDS011;20158;51.436;-2.742;2022-12-11T12:35:35;20.80;;;17.13;;
33862;SDS011;20158;51.436;-2.742;2022-12-11T12:38:22;19.88;;;15.25;;
33862;SDS011;20158;51.436;-2.742;2022-12-11T12:41:20;19.23;;;15.68;;
33862;SDS011;20158;51.436;-2.742;2022-12-11T12:44:25;18.88;;;15.70;;
33862;SDS011;20158;51.436;-2.742;2022-12-11T12:47:16;19.10;;;16.30;;
33862;SDS011;20158;51.436;-2.742;2022-12-11T12:50:01;19.10;;;15.85;;
33862;SDS011;20158;51.436;-2.742;2022-12-11T12:52:47;17.83;;;14.55;;
33862;SDS011;20158;51.436;-2.742;2022-12-11T12:55:34;17.17;;;14.75;;
33862;SDS011;20158;51.436;-2.742;2022-12-11T13:01:23;18.05;;;14.85;;
33862;SDS011;20158;51.436;-2.742;2022-12-11T13:04:22;17.48;;;13.88;;
33862;SDS011;20158;51.436;-2.742;2022-12-11T13:07:13;17.58;;;14.73;;
33862;SDS011;20158;51.436;-2.742;2022-12-11T13:12:50;15.82;;;13.73;;
33862;SDS011;20158;51.436;-2.742;2022-12-11T13:15:41;17.60;;;14.13;;
33862;SDS011;20158;51.436;-2.742;2022-12-11T13:21:32;18.13;;;15.13;;
33862;SDS011;20158;51.436;-2.742;2022-12-11T13:27:07;18.25;;;14.82;;
33862;SDS011;20158;51.436;-2.742;2022-12-11T13:30:03;17.70;;;14.02;;
33862;SDS011;20158;51.436;-2.742;2022-12-11T13:33:00;15.68;;;13.93;;
33862;SDS011;20158;51.436;-2.742;2022-12-11T13:35:45;17.92;;;14.82;;
33862;SDS011;20158;51.436;-2.742;2022-12-11T13:38:30;18.02;;;14.98;;
33862;SDS011;20158;51.436;-2.742;2022-12-11T13:41:15;17.75;;;14.07;;
33862;SDS011;20158;51.436;-2.742;2022-12-11T13:44:03;16.90;;;13.90;;
33862;SDS011;20158;51.436;-2.742;2022-12-11T13:46:50;15.68;;;13.80;;
33862;SDS011;20158;51.436;-2.742;2022-12-11T13:49:38;18.20;;;14.65;;
33862;SDS011;20158;51.436;-2.742;2022-12-11T13:52:25;15.95;;;13.82;;
33862;SDS011;20158;51.436;-2.742;2022-12-11T13:55:15;17.23;;;14.52;;
33862;SDS011;20158;51.436;-2.742;2022-12-11T13:58:18;16.63;;;13.93;;
33862;SDS011;20158;51.436;-2.742;2022-12-11T14:01:13;17.85;;;14.07;;
33862;SDS011;20158;51.436;-2.742;2022-12-11T14:04:10;16.17;;;13.93;;
33862;SDS011;20158;51.436;-2.742;2022-12-11T14:06:59;17.48;;;14.45;;
33862;SDS011;20158;51.436;-2.742;2022-12-11T14:09:44;17.80;;;14.60;;
33862;SDS011;20158;51.436;-2.742;2022-12-11T14:12:29;20.63;;;15.80;;
33862;SDS011;20158;51.436;-2.742;2022-12-11T14:15:15;18.52;;;15.10;;
33862;SDS011;20158;51.436;-2.742;2022-12-11T14:18:00;15.90;;;14.15;;
33862;SDS011;20158;51.436;-2.742;2022-12-11T14:20:45;19.00;;;15.00;;
33862;SDS011;20158;51.436;-2.742;2022-12-11T14:23:36;17.77;;;14.93;;
33862;SDS011;20158;51.436;-2.742;2022-12-11T14:26:22;16.85;;;14.32;;
33862;SDS011;20158;51.436;-2.742;2022-12-11T14:29:21;19.05;;;15.10;;
33862;SDS011;20158;51.436;-2.742;2022-12-11T14:32:07;17.42;;;14.50;;
33862;SDS011;20158;51.436;-2.742;2022-12-11T14:34:56;18.23;;;14.82;;
33862;SDS011;20158;51.436;-2.742;2022-12-11T14:37:41;17.52;;;14.68;;
33862;SDS011;20158;51.436;-2.742;2022-12-11T14:40:27;18.40;;;14.18;;
33862;SDS011;20158;51.436;-2.742;2022-12-11T14:43:37;17.75;;;14.95;;
33862;SDS011;20158;51.436;-2.742;2022-12-11T14:46:40;16.85;;;15.00;;
33862;SDS011;20158;51.436;-2.742;2022-12-11T14:52:58;17.88;;;14.75;;
33862;SDS011;20158;51.436;-2.742;2022-12-11T14:55:45;18.83;;;14.90;;
33862;SDS011;20158;51.436;-2.742;2022-12-11T14:58:36;18.73;;;15.02;;
33862;SDS011;20158;51.436;-2.742;2022-12-11T15:01:26;16.15;;;14.32;;
33862;SDS011;20158;51.436;-2.742;2022-12-11T15:06:57;17.63;;;15.63;;
33862;SDS011;20158;51.436;-2.742;2022-12-11T15:09:45;16.63;;;13.52;;
33862;SDS011;20158;51.436;-2.742;2022-12-11T15:12:29;17.27;;;15.13;;
33862;SDS011;20158;51.436;-2.742;2022-12-11T15:15:14;17.40;;;14.30;;
33862;SDS011;20158;51.436;-2.742;2022-12-11T15:18:00;20.88;;;14.65;;
33862;SDS011;20158;51.436;-2.742;2022-12-11T15:20:51;17.83;;;15.20;;
33862;SDS011;20158;51.436;-2.742;2022-12-11T15:23:46;16.25;;;14.00;;
33862;SDS011;20158;51.436;-2.742;2022-12-11T15:26:39;16.80;;;14.82;;
33862;SDS011;20158;51.436;-2.742;2022-12-11T15:29:35;18.95;;;14.73;;
33862;SDS011;20158;51.436;-2.742;2022-12-11T15:35:23;17.33;;;14.10;;
33862;SDS011;20158;51.436;-2.742;2022-12-11T15:38:23;17.48;;;14.80;;
33862;SDS011;20158;51.436;-2.742;2022-12-11T15:41:14;18.10;;;15.95;;
33862;SDS011;20158;51.436;-2.742;2022-12-11T15:44:03;18.40;;;14.68;;
33862;SDS011;20158;51.436;-2.742;2022-12-11T15:46:48;19.15;;;15.70;;
33862;SDS011;20158;51.436;-2.742;2022-12-11T15:49:33;17.92;;;15.50;;
33862;SDS011;20158;51.436;-2.742;2022-12-11T15:52:17;17.88;;;14.55;;
33862;SDS011;20158;51.436;-2.742;2022-12-11T15:55:02;18.10;;;14.30;;
33862;SDS011;20158;51.436;-2.742;2022-12-11T16:00:39;16.98;;;14.18;;
33862;SDS011;20158;51.436;-2.742;2022-12-11T16:03:23;18.90;;;15.68;;
33862;SDS011;20158;51.436;-2.742;2022-12-11T16:06:10;16.58;;;14.27;;
33862;SDS011;20158;51.436;-2.742;2022-12-11T16:08:55;18.08;;;14.90;;
33862;SDS011;20158;51.436;-2.742;2022-12-11T16:11:40;17.80;;;15.32;;
33862;SDS011;20158;51.436;-2.742;2022-12-11T16:14:25;20.17;;;15.00;;
33862;SDS011;20158;51.436;-2.742;2022-12-11T16:17:10;17.83;;;15.00;;
33862;SDS011;20158;51.436;-2.742;2022-12-11T16:19:57;18.60;;;15.05;;
33862;SDS011;20158;51.436;-2.742;2022-12-11T16:22:41;17.33;;;14.55;;
33862;SDS011;20158;51.436;-2.742;2022-12-11T16:25:26;19.20;;;15.00;;
33862;SDS011;20158;51.436;-2.742;2022-12-11T16:28:12;16.73;;;14.30;;
33862;SDS011;20158;51.436;-2.742;2022-12-11T16:30:57;17.67;;;14.20;;
33862;SDS011;20158;51.436;-2.742;2022-12-11T16:33:42;16.65;;;14.80;;
33862;SDS011;20158;51.436;-2.742;2022-12-11T16:36:27;16.92;;;14.43;;
33862;SDS011;20158;51.436;-2.742;2022-12-11T16:39:11;17.20;;;14.13;;
33862;SDS011;20158;51.436;-2.742;2022-12-11T16:41:56;15.95;;;13.85;;
33862;SDS011;20158;51.436;-2.742;2022-12-11T16:44:41;16.90;;;12.77;;
33862;SDS011;20158;51.436;-2.742;2022-12-11T16:47:25;17.73;;;12.93;;
33862;SDS011;20158;51.436;-2.742;2022-12-11T16:50:13;16.35;;;13.43;;
33862;SDS011;20158;51.436;-2.742;2022-12-11T16:52:59;16.33;;;13.35;;
33862;SDS011;20158;51.436;-2.742;2022-12-11T16:55:44;18.90;;;13.38;;
33862;SDS011;20158;51.436;-2.742;2022-12-11T16:58:28;15.00;;;12.52;;
33862;SDS011;20158;51.436;-2.742;2022-12-11T17:01:14;16.45;;;12.93;;
33862;SDS011;20158;51.436;-2.742;2022-12-11T17:03:59;14.70;;;11.93;;
33862;SDS011;20158;51.436;-2.742;2022-12-11T17:06:44;15.23;;;12.63;;
33862;SDS011;20158;51.436;-2.742;2022-12-11T17:09:29;14.05;;;11.23;;
33862;SDS011;20158;51.436;-2.742;2022-12-11T17:12:14;15.20;;;12.23;;
33862;SDS011;20158;51.436;-2.742;2022-12-11T17:14:58;15.00;;;13.10;;
33862;SDS011;20158;51.436;-2.742;2022-12-11T17:17:43;16.50;;;12.77;;
33862;SDS011;20158;51.436;-2.742;2022-12-11T17:20:27;14.38;;;12.35;;
33862;SDS011;20158;51.436;-2.742;2022-12-11T17:23:12;13.95;;;11.57;;
33862;SDS011;20158;51.436;-2.742;2022-12-11T17:25:57;15.23;;;12.82;;
33862;SDS011;20158;51.436;-2.742;2022-12-11T17:28:41;15.93;;;12.68;;
33862;SDS011;20158;51.436;-2.742;2022-12-11T17:31:26;16.15;;;12.57;;
33862;SDS011;20158;51.436;-2.742;2022-12-11T17:34:10;13.90;;;12.15;;
33862;SDS011;20158;51.436;-2.742;2022-12-11T17:36:55;17.35;;;13.75;;
33862;SDS011;20158;51.436;-2.742;2022-12-11T17:39:40;16.45;;;13.10;;
33862;SDS011;20158;51.436;-2.742;2022-12-11T17:42:24;13.90;;;12.15;;
33862;SDS011;20158;51.436;-2.742;2022-12-11T17:45:09;14.95;;;12.18;;